Time;durP1;ratioP1;P1;durP2;ratioP2;P2;SDS_P1;SDS_P2;PMS_P1;PMS_P2;Temp;Humidity;BMP_temperature;BMP_pressure;BME280_temperature;BME280_humidity;BME280_pressure;Samples;Min_cycle;Max_cycle;Signal;HPM_P1;HPM_P2
2023/11/21 00:02:11;;;;;;;46.88;44.38;;;;;;;;;;5024452;28;20033;-60
2023/11/21 00:04:37;;;;;;;46.95;44.55;;;;;;;;;;5022419;28;20033;-60
2023/11/21 00:07:03;;;;;;;47.92;45.47;;;;;;;;;;5025189;28;20033;-60
2023/11/21 00:09:28;;;;;;;48.17;45.70;;;;;;;;;;5023319;28;20108;-60
2023/11/21 00:11:53;;;;;;;48.30;45.85;;;;;;;;;;5021871;28;20041;-52
2023/11/21 00:14:19;;;;;;;46.55;44.15;;;;;;;;;;5026713;28;20586;-53
2023/11/21 00:16:45;;;;;;;46.95;44.30;;;;;;;;;;5022959;28;20037;-55
2023/11/21 00:19:11;;;;;;;49.00;46.50;;;;;;;;;;5021316;28;20025;-52
2023/11/21 00:21:36;;;;;;;45.90;43.58;;;;;;;;;;5022935;28;20121;-54
2023/11/21 00:24:02;;;;;;;49.65;47.15;;;;;;;;;;5020595;28;20149;-52
2023/11/21 00:26:27;;;;;;;51.80;49.20;;;;;;;;;;5023421;28;20339;-54
2023/11/21 00:28:53;;;;;;;52.00;49.30;;;;;;;;;;5021025;28;20032;-53
2023/11/21 00:31:18;;;;;;;52.38;49.58;;;;;;;;;;5022797;28;20026;-53
2023/11/21 00:33:43;;;;;;;54.85;52.05;;;;;;;;;;5021618;28;20052;-54
2023/11/21 00:36:09;;;;;;;52.08;49.38;;;;;;;;;;5021546;28;20144;-54
2023/11/21 00:38:39;;;;;;;50.08;47.55;;;;;;;;;;5023010;28;20132;-56
2023/11/21 00:41:06;;;;;;;52.45;49.55;;;;;;;;;;5022045;28;20123;-55
2023/11/21 00:43:33;;;;;;;51.03;48.42;;;;;;;;;;5023383;28;20065;-50
2023/11/21 00:45:58;;;;;;;51.25;48.65;;;;;;;;;;5022751;28;20048;-54
2023/11/21 00:48:23;;;;;;;53.60;50.67;;;;;;;;;;5022746;28;20025;-55
2023/11/21 00:50:50;;;;;;;53.63;50.85;;;;;;;;;;5020022;28;20022;-52
2023/11/21 00:53:15;;;;;;;55.00;52.17;;;;;;;;;;5023140;28;20068;-54
2023/11/21 00:55:41;;;;;;;55.83;52.92;;;;;;;;;;5019938;28;20065;-51
2023/11/21 00:58:06;;;;;;;53.83;51.08;;;;;;;;;;5022168;28;20037;-53
2023/11/21 01:00:33;;;;;;;52.67;50.03;;;;;;;;;;5020712;28;20036;-54
2023/11/21 01:02:59;;;;;;;56.13;53.22;;;;;;;;;;5020421;28;20067;-52
2023/11/21 01:05:24;;;;;;;55.83;53.00;;;;;;;;;;5024865;28;20037;-52
2023/11/21 01:07:50;;;;;;;54.35;51.55;;;;;;;;;;5023476;28;20048;-54
2023/11/21 01:10:17;;;;;;;55.20;52.42;;;;;;;;;;5024168;28;20029;-54
2023/11/21 01:12:42;;;;;;;57.22;54.30;;;;;;;;;;5019436;28;20456;-52
2023/11/21 01:15:08;;;;;;;55.17;52.38;;;;;;;;;;5026825;28;20461;-52
2023/11/21 01:17:34;;;;;;;56.95;54.08;;;;;;;;;;5024968;28;20132;-53
2023/11/21 01:20:00;;;;;;;55.92;53.05;;;;;;;;;;5018473;28;20034;-51
2023/11/21 01:22:26;;;;;;;55.50;52.67;;;;;;;;;;5021976;28;20033;-51
2023/11/21 01:24:54;;;;;;;60.03;57.00;;;;;;;;;;5022943;28;20029;-52
2023/11/21 01:27:20;;;;;;;55.45;52.65;;;;;;;;;;5019804;28;20041;-55
2023/11/21 01:29:45;;;;;;;58.30;55.35;;;;;;;;;;5022768;28;20275;-50
2023/11/21 01:32:11;;;;;;;59.22;56.22;;;;;;;;;;5022905;28;20049;-53
2023/11/21 01:34:36;;;;;;;58.88;55.78;;;;;;;;;;5020189;28;20037;-53
2023/11/21 01:37:04;;;;;;;59.60;56.42;;;;;;;;;;5021123;28;20033;-52
2023/11/21 01:39:29;;;;;;;59.58;56.58;;;;;;;;;;5009581;28;20053;-56
2023/11/21 01:41:55;;;;;;;58.83;55.70;;;;;;;;;;5022174;28;20345;-53
2023/11/21 01:44:20;;;;;;;63.15;59.05;;;;;;;;;;5017514;28;20055;-51
2023/11/21 01:46:47;;;;;;;65.13;61.75;;;;;;;;;;5023263;28;20038;-53
2023/11/21 01:49:14;;;;;;;64.43;61.03;;;;;;;;;;5023162;28;20098;-57
2023/11/21 01:51:43;;;;;;;67.50;63.92;;;;;;;;;;5019221;28;20723;-58
2023/11/21 01:54:09;;;;;;;70.50;66.93;;;;;;;;;;5022181;28;20052;-58
2023/11/21 01:56:34;;;;;;;68.80;65.32;;;;;;;;;;5023987;28;20041;-59
2023/11/21 01:59:00;;;;;;;73.63;69.93;;;;;;;;;;5020580;28;20479;-58
2023/11/21 02:01:26;;;;;;;70.60;67.05;;;;;;;;;;5024564;28;20443;-59
2023/11/21 02:03:51;;;;;;;74.43;70.63;;;;;;;;;;5021528;28;20091;-59
2023/11/21 02:06:18;;;;;;;73.00;69.32;;;;;;;;;;5020965;28;20035;-58
2023/11/21 02:08:44;;;;;;;76.47;72.57;;;;;;;;;;5021889;28;20506;-59
2023/11/21 02:11:12;;;;;;;81.38;77.28;;;;;;;;;;5019532;28;20052;-59
2023/11/21 02:13:38;;;;;;;78.18;74.13;;;;;;;;;;5022178;28;20270;-60
2023/11/21 02:16:05;;;;;;;75.15;71.38;;;;;;;;;;5019905;28;20037;-59
2023/11/21 02:18:31;;;;;;;77.90;73.93;;;;;;;;;;5021517;28;20029;-59
2023/11/21 02:20:56;;;;;;;79.53;75.53;;;;;;;;;;5019408;28;20064;-59
2023/11/21 02:23:23;;;;;;;76.78;72.93;;;;;;;;;;5021135;28;20033;-59
2023/11/21 02:25:48;;;;;;;81.53;77.43;;;;;;;;;;5021800;28;20490;-59
2023/11/21 02:28:15;;;;;;;78.28;74.32;;;;;;;;;;5023367;28;20064;-59
2023/11/21 02:30:40;;;;;;;72.97;69.30;;;;;;;;;;5020993;28;20033;-60
2023/11/21 02:33:07;;;;;;;76.55;72.65;;;;;;;;;;5023053;28;20470;-60
2023/11/21 02:35:32;;;;;;;76.25;72.15;;;;;;;;;;5019245;28;20371;-58
2023/11/21 02:37:57;;;;;;;71.63;68.03;;;;;;;;;;5019284;28;20030;-58
2023/11/21 02:40:25;;;;;;;69.07;65.57;;;;;;;;;;5020253;28;20529;-59
2023/11/21 02:42:51;;;;;;;68.63;65.15;;;;;;;;;;5021551;28;20107;-59
2023/11/21 02:45:18;;;;;;;68.65;65.18;;;;;;;;;;5024348;28;20034;-53
2023/11/21 02:47:44;;;;;;;60.60;57.50;;;;;;;;;;5019512;28;20045;-54
2023/11/21 02:50:09;;;;;;;61.05;57.95;;;;;;;;;;5021428;28;20375;-54
2023/11/21 02:52:35;;;;;;;60.45;57.35;;;;;;;;;;5021729;28;20109;-55
2023/11/21 02:55:02;;;;;;;58.70;55.70;;;;;;;;;;5017346;28;20045;-54
2023/11/21 02:57:27;;;;;;;60.15;56.95;;;;;;;;;;5024453;28;20041;-52
2023/11/21 02:59:52;;;;;;;57.40;54.42;;;;;;;;;;5024725;28;20385;-52
2023/11/21 03:02:18;;;;;;;56.50;53.65;;;;;;;;;;5022660;28;20375;-53
2023/11/21 03:04:43;;;;;;;53.50;50.72;;;;;;;;;;5025162;28;20041;-52
2023/11/21 03:07:09;;;;;;;53.67;50.83;;;;;;;;;;5023124;28;20076;-51
2023/11/21 03:09:35;;;;;;;50.42;47.83;;;;;;;;;;5023234;28;20041;-53
2023/11/21 03:12:01;;;;;;;51.17;48.58;;;;;;;;;;5022274;28;20037;-51
2023/11/21 03:14:27;;;;;;;48.83;46.30;;;;;;;;;;5022826;28;20033;-53
2023/11/21 03:16:52;;;;;;;48.40;45.90;;;;;;;;;;5024240;28;20033;-50
2023/11/21 03:19:18;;;;;;;46.72;44.33;;;;;;;;;;5020861;28;20564;-55
2023/11/21 03:21:43;;;;;;;50.45;47.65;;;;;;;;;;5023835;28;20526;-52
2023/11/21 03:24:08;;;;;;;48.03;45.58;;;;;;;;;;5022620;28;20115;-52
2023/11/21 03:26:34;;;;;;;48.53;46.03;;;;;;;;;;5024230;28;20037;-55
2023/11/21 03:28:59;;;;;;;48.70;46.20;;;;;;;;;;5019997;28;20056;-54
2023/11/21 03:31:25;;;;;;;53.70;50.22;;;;;;;;;;5023861;28;20087;-54
2023/11/21 03:33:50;;;;;;;52.97;50.28;;;;;;;;;;5021723;28;20040;-54
2023/11/21 03:36:15;;;;;;;55.13;52.33;;;;;;;;;;5025751;28;20371;-50
2023/11/21 03:38:41;;;;;;;59.65;56.60;;;;;;;;;;5023271;28;20168;-53
2023/11/21 03:41:10;;;;;;;58.83;55.83;;;;;;;;;;5023163;28;20124;-51
2023/11/21 03:43:36;;;;;;;62.78;59.58;;;;;;;;;;5021810;28;20080;-52
2023/11/21 03:46:01;;;;;;;65.10;61.78;;;;;;;;;;5021458;28;20037;-52
2023/11/21 03:48:27;;;;;;;71.97;68.38;;;;;;;;;;5025620;28;20048;-48
2023/11/21 03:50:52;;;;;;;75.93;71.75;;;;;;;;;;5022936;28;20698;-52
2023/11/21 03:53:17;;;;;;;79.10;75.10;;;;;;;;;;5021709;28;20348;-50
2023/11/21 03:55:43;;;;;;;78.10;74.20;;;;;;;;;;5023182;28;20452;-53
2023/11/21 03:58:08;;;;;;;76.97;73.05;;;;;;;;;;5023641;28;20095;-50
2023/11/21 04:00:33;;;;;;;77.22;73.32;;;;;;;;;;5023654;28;20045;-53
2023/11/21 04:02:58;;;;;;;78.10;74.15;;;;;;;;;;5020850;28;20106;-52
2023/11/21 04:05:24;;;;;;;82.90;78.68;;;;;;;;;;5019745;28;20029;-56
2023/11/21 04:07:57;;;;;;;82.72;78.57;;;;;;;;;;5025388;28;20084;-55
2023/11/21 04:10:22;;;;;;;90.28;85.53;;;;;;;;;;5020118;28;20047;-54
2023/11/21 04:12:48;;;;;;;91.68;87.00;;;;;;;;;;5028594;28;20651;-51
2023/11/21 04:15:14;;;;;;;92.95;88.30;;;;;;;;;;5021371;28;20393;-50
2023/11/21 04:17:40;;;;;;;100.15;95.15;;;;;;;;;;5023481;28;20033;-50
2023/11/21 04:20:09;;;;;;;108.28;102.70;;;;;;;;;;5021019;28;20053;-51
2023/11/21 04:22:43;;;;;;;105.13;99.82;;;;;;;;;;5020386;28;20038;-53
2023/11/21 04:25:10;;;;;;;103.22;98.10;;;;;;;;;;5019137;28;20419;-51
2023/11/21 04:27:36;;;;;;;104.75;99.43;;;;;;;;;;5024448;28;20490;-53
2023/11/21 04:30:02;;;;;;;102.68;97.55;;;;;;;;;;5021579;28;20107;-51
2023/11/21 04:32:27;;;;;;;100.82;95.75;;;;;;;;;;5019725;28;20046;-50
2023/11/21 04:34:52;;;;;;;100.18;95.18;;;;;;;;;;5021462;28;20116;-52
2023/11/21 04:37:18;;;;;;;99.75;94.80;;;;;;;;;;5021420;28;20032;-49
2023/11/21 04:39:43;;;;;;;102.70;97.53;;;;;;;;;;5019721;28;20041;-52
2023/11/21 04:42:08;;;;;;;102.82;97.70;;;;;;;;;;5018540;28;20117;-50
2023/11/21 04:44:33;;;;;;;104.88;99.65;;;;;;;;;;5025418;28;20077;-49
2023/11/21 04:46:59;;;;;;;105.50;100.25;;;;;;;;;;5020845;28;20133;-50
2023/11/21 04:49:24;;;;;;;97.93;93.00;;;;;;;;;;5022342;28;20409;-51
2023/11/21 04:51:49;;;;;;;100.13;95.07;;;;;;;;;;5024514;28;20029;-55
2023/11/21 04:54:15;;;;;;;102.90;97.72;;;;;;;;;;5019056;28;20030;-51
2023/11/21 04:56:40;;;;;;;99.78;94.80;;;;;;;;;;5023317;28;20087;-54
2023/11/21 04:59:05;;;;;;;96.38;91.57;;;;;;;;;;5022035;28;20037;-52
2023/11/21 05:01:31;;;;;;;97.40;92.43;;;;;;;;;;5022036;28;20246;-54
2023/11/21 05:03:57;;;;;;;94.32;89.65;;;;;;;;;;5020110;28;20049;-53
2023/11/21 05:06:23;;;;;;;91.60;87.03;;;;;;;;;;5020125;28;20061;-51
2023/11/21 05:08:49;;;;;;;94.47;89.78;;;;;;;;;;5023829;28;20033;-50
2023/11/21 05:11:24;;;;;;;93.20;88.55;;;;;;;;;;5021035;28;20034;-55
2023/11/21 05:13:50;;;;;;;98.50;93.60;;;;;;;;;;5021146;28;20037;-56
2023/11/21 05:16:15;;;;;;;98.07;93.20;;;;;;;;;;5018336;28;20525;-50
2023/11/21 05:18:40;;;;;;;91.60;87.05;;;;;;;;;;5020627;28;20133;-55
2023/11/21 05:21:06;;;;;;;95.20;90.47;;;;;;;;;;5022352;28;20037;-55
2023/11/21 05:23:33;;;;;;;95.30;90.57;;;;;;;;;;5024231;28;20044;-53
2023/11/21 05:25:59;;;;;;;102.93;97.82;;;;;;;;;;5019669;28;20095;-53
2023/11/21 05:28:25;;;;;;;101.70;96.63;;;;;;;;;;5021419;28;20530;-56
2023/11/21 05:30:50;;;;;;;98.78;93.78;;;;;;;;;;5019932;28;20058;-53
2023/11/21 05:33:16;;;;;;;97.32;92.50;;;;;;;;;;5021210;28;20076;-56
2023/11/21 05:35:41;;;;;;;102.70;97.60;;;;;;;;;;5020425;28;20040;-55
2023/11/21 05:38:06;;;;;;;107.78;102.43;;;;;;;;;;5021843;28;20037;-52
2023/11/21 05:40:32;;;;;;;103.57;98.43;;;;;;;;;;5020187;28;20882;-51
2023/11/21 05:42:59;;;;;;;103.05;97.93;;;;;;;;;;5022178;28;20033;-54
2023/11/21 05:45:24;;;;;;;101.78;96.72;;;;;;;;;;5018045;28;20164;-55
2023/11/21 05:47:50;;;;;;;100.03;95.05;;;;;;;;;;5020935;28;20136;-55
2023/11/21 05:50:17;;;;;;;98.88;93.95;;;;;;;;;;5018438;28;20448;-51
2023/11/21 05:52:44;;;;;;;101.63;96.57;;;;;;;;;;5020967;28;20033;-55
2023/11/21 05:55:10;;;;;;;101.65;96.57;;;;;;;;;;5020661;28;20571;-52
2023/11/21 05:57:36;;;;;;;101.50;96.45;;;;;;;;;;5019294;28;20041;-51
2023/11/21 06:00:10;;;;;;;100.00;95.05;;;;;;;;;;5022273;28;20133;-52
2023/11/21 06:02:37;;;;;;;97.63;92.75;;;;;;;;;;5024099;28;20030;-55
2023/11/21 06:05:04;;;;;;;98.60;93.70;;;;;;;;;;5021769;28;20036;-52
2023/11/21 06:07:29;;;;;;;104.78;99.53;;;;;;;;;;5020763;28;20060;-51
2023/11/21 06:09:54;;;;;;;105.18;99.30;;;;;;;;;;5022228;28;20042;-53
2023/11/21 06:12:20;;;;;;;107.03;101.70;;;;;;;;;;5020435;28;20114;-52
2023/11/21 06:14:46;;;;;;;102.82;97.68;;;;;;;;;;5023137;28;20234;-50
2023/11/21 06:17:11;;;;;;;100.38;95.40;;;;;;;;;;5018811;28;20070;-55
2023/11/21 06:19:36;;;;;;;95.60;90.85;;;;;;;;;;5021996;28;20487;-54
2023/11/21 06:22:02;;;;;;;93.95;89.28;;;;;;;;;;5022487;28;20022;-51
2023/11/21 06:24:27;;;;;;;90.00;85.50;;;;;;;;;;5013779;28;20192;-53
2023/11/21 06:26:53;;;;;;;90.15;85.57;;;;;;;;;;5018710;28;20040;-54
2023/11/21 06:29:18;;;;;;;94.97;90.22;;;;;;;;;;5017563;28;20522;-53
2023/11/21 06:31:43;;;;;;;94.43;89.72;;;;;;;;;;5021399;28;20098;-51
2023/11/21 06:34:09;;;;;;;94.55;89.75;;;;;;;;;;5025809;28;20114;-53
2023/11/21 06:36:36;;;;;;;93.65;88.93;;;;;;;;;;5024279;28;20038;-51
2023/11/21 06:39:01;;;;;;;92.63;87.90;;;;;;;;;;5022679;28;20033;-54
2023/11/21 06:41:27;;;;;;;91.93;87.35;;;;;;;;;;5018920;28;20037;-50
2023/11/21 06:43:53;;;;;;;94.25;89.47;;;;;;;;;;5027075;28;20032;-52
2023/11/21 06:46:19;;;;;;;89.97;85.43;;;;;;;;;;5022777;28;20076;-55
2023/11/21 06:48:45;;;;;;;84.53;80.15;;;;;;;;;;5021778;28;20033;-51
2023/11/21 06:51:10;;;;;;;88.90;84.47;;;;;;;;;;5020818;28;20037;-56
2023/11/21 06:53:37;;;;;;;89.50;85.00;;;;;;;;;;5022727;28;20045;-54
2023/11/21 06:56:03;;;;;;;89.53;85.03;;;;;;;;;;5027252;28;20463;-53
2023/11/21 06:58:28;;;;;;;89.97;85.43;;;;;;;;;;5024834;28;20033;-54
2023/11/21 07:00:54;;;;;;;97.00;92.10;;;;;;;;;;5021436;28;20042;-54
2023/11/21 07:03:19;;;;;;;95.38;90.38;;;;;;;;;;5022324;28;20046;-55
2023/11/21 07:05:45;;;;;;;95.93;91.10;;;;;;;;;;5023348;28;20040;-53
2023/11/21 07:08:12;;;;;;;95.45;90.13;;;;;;;;;;5019657;28;20042;-55
2023/11/21 07:10:38;;;;;;;97.25;92.07;;;;;;;;;;5023447;28;20026;-50
2023/11/21 07:13:03;;;;;;;99.10;94.10;;;;;;;;;;5024716;28;20390;-52
2023/11/21 07:15:28;;;;;;;94.07;89.38;;;;;;;;;;5021571;28;20099;-54
2023/11/21 07:17:54;;;;;;;95.40;90.50;;;;;;;;;;5021062;28;20423;-53
2023/11/21 07:20:19;;;;;;;92.15;87.50;;;;;;;;;;5019742;28;20041;-53
2023/11/21 07:22:45;;;;;;;90.93;86.32;;;;;;;;;;5027618;28;20099;-58
2023/11/21 07:25:10;;;;;;;91.63;86.93;;;;;;;;;;5021822;28;20112;-58
2023/11/21 07:27:37;;;;;;;85.30;80.78;;;;;;;;;;5015545;28;20450;-57
2023/11/21 07:30:07;;;;;;;86.40;81.85;;;;;;;;;;5022901;28;20021;-58
2023/11/21 07:32:33;;;;;;;82.88;78.57;;;;;;;;;;5019464;28;21128;-57
2023/11/21 07:35:01;;;;;;;84.95;80.65;;;;;;;;;;5021281;28;20079;-58
2023/11/21 07:37:28;;;;;;;84.38;80.07;;;;;;;;;;5021288;28;20096;-57
2023/11/21 07:39:56;;;;;;;86.38;81.97;;;;;;;;;;5021805;28;20051;-58
2023/11/21 07:42:26;;;;;;;86.97;82.65;;;;;;;;;;5021474;28;20033;-56
2023/11/21 07:44:52;;;;;;;86.15;81.75;;;;;;;;;;5021137;28;20037;-59
2023/11/21 07:47:17;;;;;;;85.38;80.90;;;;;;;;;;5023544;28;20041;-59
2023/11/21 07:49:43;;;;;;;90.43;85.82;;;;;;;;;;5020425;28;20734;-59
2023/11/21 07:52:09;;;;;;;91.93;87.20;;;;;;;;;;5020492;28;20037;-57
2023/11/21 07:54:35;;;;;;;95.70;90.70;;;;;;;;;;5018627;28;20155;-58
2023/11/21 07:57:01;;;;;;;90.22;85.70;;;;;;;;;;5022284;28;20120;-59
2023/11/21 07:59:27;;;;;;;91.03;86.45;;;;;;;;;;5017416;28;20099;-58
2023/11/21 08:01:52;;;;;;;89.18;84.63;;;;;;;;;;5020812;28;20041;-49
2023/11/21 08:04:18;;;;;;;87.20;82.72;;;;;;;;;;5020086;28;20033;-55
2023/11/21 08:06:43;;;;;;;86.50;81.97;;;;;;;;;;5021200;28;20038;-54
2023/11/21 08:09:09;;;;;;;84.82;80.53;;;;;;;;;;5021232;28;20052;-51
2023/11/21 08:11:34;;;;;;;82.93;78.72;;;;;;;;;;5016900;28;20133;-55
2023/11/21 08:13:59;;;;;;;83.47;79.28;;;;;;;;;;5024042;28;20112;-59
2023/11/21 08:16:25;;;;;;;82.45;78.25;;;;;;;;;;5018451;28;20045;-58
2023/11/21 08:18:51;;;;;;;80.80;76.60;;;;;;;;;;5021678;28;20041;-59
2023/11/21 08:21:16;;;;;;;82.32;78.13;;;;;;;;;;5019000;28;20121;-59
2023/11/21 08:23:41;;;;;;;70.97;67.35;;;;;;;;;;5019362;28;20052;-59
2023/11/21 08:26:08;;;;;;;64.57;61.05;;;;;;;;;;5018569;28;20042;-59
2023/11/21 08:28:34;;;;;;;53.08;50.38;;;;;;;;;;5017798;28;20120;-59
2023/11/21 08:31:01;;;;;;;54.50;51.65;;;;;;;;;;5019922;28;20131;-60
2023/11/21 08:33:26;;;;;;;53.30;50.58;;;;;;;;;;5021374;28;20102;-59
2023/11/21 08:35:51;;;;;;;54.97;52.17;;;;;;;;;;5021897;28;20041;-58
2023/11/21 08:38:17;;;;;;;55.30;52.20;;;;;;;;;;5019967;28;20739;-58
2023/11/21 08:40:43;;;;;;;50.13;47.53;;;;;;;;;;5019470;28;20045;-57
2023/11/21 08:43:08;;;;;;;50.08;47.55;;;;;;;;;;5021749;28;20030;-58
2023/11/21 08:45:34;;;;;;;50.22;47.65;;;;;;;;;;5020558;28;20540;-58
2023/11/21 08:48:00;;;;;;;50.20;47.55;;;;;;;;;;5019241;28;20037;-59
2023/11/21 08:50:25;;;;;;;44.92;42.53;;;;;;;;;;5006635;28;20044;-59
2023/11/21 08:52:51;;;;;;;43.38;41.08;;;;;;;;;;5022364;28;20025;-59
2023/11/21 08:55:16;;;;;;;41.88;39.67;;;;;;;;;;5018229;28;20412;-59
2023/11/21 08:57:44;;;;;;;36.97;35.03;;;;;;;;;;5017238;28;20034;-59
2023/11/21 09:00:16;;;;;;;36.42;34.53;;;;;;;;;;5023670;28;20129;-59
2023/11/21 09:02:43;;;;;;;37.10;35.15;;;;;;;;;;5019962;28;20069;-58
2023/11/21 09:05:10;;;;;;;38.65;36.60;;;;;;;;;;5019261;28;20056;-59
2023/11/21 09:07:39;;;;;;;38.08;35.38;;;;;;;;;;5014809;28;20052;-57
2023/11/21 09:10:07;;;;;;;37.20;35.20;;;;;;;;;;5017271;28;20047;-59
2023/11/21 09:12:37;;;;;;;41.30;39.00;;;;;;;;;;5018771;28;20158;-58
2023/11/21 09:15:04;;;;;;;38.20;36.15;;;;;;;;;;5020975;28;20465;-59
2023/11/21 09:17:30;;;;;;;39.22;37.13;;;;;;;;;;5019264;28;20128;-58
2023/11/21 09:19:56;;;;;;;40.03;37.92;;;;;;;;;;5018536;28;20101;-58
2023/11/21 09:22:24;;;;;;;40.80;38.63;;;;;;;;;;5016971;28;20029;-59
2023/11/21 09:24:50;;;;;;;39.30;37.20;;;;;;;;;;5019631;28;20658;-58
2023/11/21 09:27:17;;;;;;;42.42;40.20;;;;;;;;;;5017310;28;20042;-57
2023/11/21 09:29:42;;;;;;;44.90;42.60;;;;;;;;;;5017648;28;20068;-60
2023/11/21 09:32:08;;;;;;;45.72;43.33;;;;;;;;;;5024474;28;20041;-59
2023/11/21 09:34:38;;;;;;;41.65;39.50;;;;;;;;;;5019883;28;20033;-60
2023/11/21 09:37:05;;;;;;;44.08;41.38;;;;;;;;;;5021482;28;20060;-58
2023/11/21 09:39:31;;;;;;;40.40;38.30;;;;;;;;;;5015997;28;20095;-57
2023/11/21 09:42:16;;;;;;;40.38;38.28;;;;;;;;;;5017949;28;20050;-58
2023/11/21 09:45:05;;;;;;;45.25;42.88;;;;;;;;;;5021736;28;20618;-58
2023/11/21 09:47:35;;;;;;;40.53;38.35;;;;;;;;;;5017623;28;20064;-58
2023/11/21 09:50:01;;;;;;;40.97;38.70;;;;;;;;;;5013894;28;20029;-57
2023/11/21 09:52:28;;;;;;;38.85;36.85;;;;;;;;;;5021996;28;20040;-58
2023/11/21 09:54:58;;;;;;;40.22;38.10;;;;;;;;;;5025411;28;20120;-58
2023/11/21 09:57:24;;;;;;;38.42;36.42;;;;;;;;;;5026593;28;20072;-57
2023/11/21 09:59:59;;;;;;;39.70;37.60;;;;;;;;;;5024651;28;20235;-58
2023/11/21 10:02:30;;;;;;;36.50;34.60;;;;;;;;;;5022570;28;20044;-58
2023/11/21 10:04:56;;;;;;;35.92;34.03;;;;;;;;;;5026038;28;20041;-58
2023/11/21 10:07:22;;;;;;;38.00;35.55;;;;;;;;;;5022422;28;20017;-57
2023/11/21 10:09:48;;;;;;;38.67;36.58;;;;;;;;;;5021853;28;20049;-58
2023/11/21 10:12:15;;;;;;;35.10;33.30;;;;;;;;;;5023553;28;20090;-58
2023/11/21 10:14:42;;;;;;;38.92;36.83;;;;;;;;;;5008157;28;20033;-58
2023/11/21 10:17:12;;;;;;;38.75;36.75;;;;;;;;;;5022580;28;20051;-58
2023/11/21 10:19:38;;;;;;;38.38;36.38;;;;;;;;;;5028575;28;20068;-58
2023/11/21 10:22:04;;;;;;;41.35;39.15;;;;;;;;;;5023666;28;20030;-58
2023/11/21 10:24:29;;;;;;;40.40;38.33;;;;;;;;;;5006466;28;20028;-57
2023/11/21 10:26:55;;;;;;;40.45;38.38;;;;;;;;;;5028815;28;20041;-58
2023/11/21 10:29:21;;;;;;;44.28;41.97;;;;;;;;;;5018000;28;20026;-58
2023/11/21 10:31:49;;;;;;;42.78;40.55;;;;;;;;;;5021633;28;20358;-58
2023/11/21 10:34:16;;;;;;;43.63;41.33;;;;;;;;;;5022004;28;20041;-55
2023/11/21 10:36:42;;;;;;;43.92;41.55;;;;;;;;;;5021696;28;20475;-57
2023/11/21 10:39:09;;;;;;;44.22;41.88;;;;;;;;;;5022562;28;20096;-58
2023/11/21 10:41:35;;;;;;;44.25;41.97;;;;;;;;;;5021994;28;20434;-58
2023/11/21 10:44:04;;;;;;;47.08;44.67;;;;;;;;;;5023240;28;20434;-53
2023/11/21 10:46:30;;;;;;;41.53;39.33;;;;;;;;;;5021054;28;20125;-56
2023/11/21 10:48:56;;;;;;;45.95;43.45;;;;;;;;;;5019565;28;20121;-57
2023/11/21 10:51:24;;;;;;;44.42;42.03;;;;;;;;;;5022354;28;20056;-57
2023/11/21 10:53:51;;;;;;;42.17;39.92;;;;;;;;;;5021357;28;20034;-56
2023/11/21 10:56:21;;;;;;;45.72;43.28;;;;;;;;;;5022519;28;20038;-57
2023/11/21 10:58:52;;;;;;;45.50;43.17;;;;;;;;;;5023860;28;20483;-58
2023/11/21 11:01:17;;;;;;;;;;;;;;;;;;5022915;28;20045;-57
2023/11/21 11:03:44;;;;;;;38.50;36.50;;;;;;;;;;5021579;28;19920;-58
2023/11/21 11:06:11;;;;;;;45.40;43.10;;;;;;;;;;5024554;28;20122;-58
2023/11/21 11:08:40;;;;;;;46.88;44.38;;;;;;;;;;5018976;28;20081;-58
2023/11/21 11:11:06;;;;;;;48.35;45.88;;;;;;;;;;5016844;28;20034;-60
2023/11/21 11:13:32;;;;;;;50.90;48.30;;;;;;;;;;5021763;28;20373;-58
2023/11/21 11:16:00;;;;;;;51.20;48.58;;;;;;;;;;5016337;28;20026;-55
2023/11/21 11:18:25;;;;;;;47.05;44.58;;;;;;;;;;5020861;28;20059;-57
2023/11/21 11:20:51;;;;;;;45.83;43.53;;;;;;;;;;5024844;28;20038;-56
2023/11/21 11:23:38;;;;;;;44.53;42.08;;;;;;;;;;5020963;28;20130;-56
2023/11/21 11:26:15;;;;;;;41.58;39.45;;;;;;;;;;5021571;28;20033;-57
2023/11/21 11:29:22;;;;;;;45.40;42.75;;;;;;;;;;5020987;28;20041;-57
2023/11/21 11:32:15;;;;;;;39.00;36.90;;;;;;;;;;5022438;28;20034;-57
2023/11/21 11:34:56;;;;;;;38.28;36.03;;;;;;;;;;5022116;28;20033;-56
2023/11/21 11:37:23;;;;;;;37.42;35.22;;;;;;;;;;5023710;28;20625;-57
2023/11/21 11:39:49;;;;;;;34.13;32.30;;;;;;;;;;5019312;28;20123;-56
2023/11/21 11:42:17;;;;;;;34.95;33.15;;;;;;;;;;5022850;28;20069;-57
2023/11/21 11:44:45;;;;;;;32.25;30.55;;;;;;;;;;5019340;28;20069;-58
2023/11/21 11:47:21;;;;;;;36.33;34.42;;;;;;;;;;5019845;28;20029;-57
2023/11/21 11:50:08;;;;;;;33.95;32.17;;;;;;;;;;5021077;28;20045;-58
2023/11/21 11:52:44;;;;;;;33.22;31.38;;;;;;;;;;5019337;28;20049;-56
2023/11/21 11:55:13;;;;;;;34.85;32.85;;;;;;;;;;5023073;28;20498;-56
2023/11/21 11:57:39;;;;;;;34.08;32.13;;;;;;;;;;5018503;28;20530;-55
2023/11/21 12:00:22;;;;;;;34.00;32.08;;;;;;;;;;5024071;28;20041;-56
2023/11/21 12:02:49;;;;;;;35.00;33.10;;;;;;;;;;5022229;28;20044;-57
2023/11/21 12:05:20;;;;;;;34.17;32.35;;;;;;;;;;5019763;28;20107;-56
2023/11/21 12:08:06;;;;;;;32.42;30.60;;;;;;;;;;5022382;28;20049;-58
2023/11/21 12:10:33;;;;;;;31.63;30.00;;;;;;;;;;5023760;28;20048;-56
2023/11/21 12:13:01;;;;;;;34.67;32.78;;;;;;;;;;5021225;28;20136;-55
2023/11/21 12:15:29;;;;;;;34.22;32.42;;;;;;;;;;5022706;28;20034;-54
2023/11/21 12:17:54;;;;;;;33.50;31.80;;;;;;;;;;5019908;28;20030;-56
2023/11/21 12:20:24;;;;;;;33.08;31.38;;;;;;;;;;5023764;28;20482;-56
2023/11/21 12:22:54;;;;;;;33.22;30.98;;;;;;;;;;5021869;28;20571;-54
2023/11/21 12:25:28;;;;;;;32.80;31.03;;;;;;;;;;5021986;28;20037;-55
2023/11/21 12:27:55;;;;;;;32.35;30.65;;;;;;;;;;5021436;28;20053;-56
2023/11/21 12:30:22;;;;;;;33.67;31.88;;;;;;;;;;5019928;28;20034;-57
2023/11/21 12:32:51;;;;;;;32.67;30.98;;;;;;;;;;5021463;28;20033;-56
2023/11/21 12:35:19;;;;;;;34.08;32.28;;;;;;;;;;5018675;28;20497;-56
2023/11/21 12:37:45;;;;;;;34.13;32.33;;;;;;;;;;5024054;28;20034;-56
2023/11/21 12:40:11;;;;;;;34.03;31.52;;;;;;;;;;5023828;28;20039;-55
2023/11/21 12:42:39;;;;;;;33.33;31.52;;;;;;;;;;5018317;28;20037;-57
2023/11/21 12:45:14;;;;;;;35.30;33.13;;;;;;;;;;5022700;28;20060;-57
2023/11/21 12:47:50;;;;;;;34.22;32.42;;;;;;;;;;5022477;28;20037;-57
2023/11/21 12:50:21;;;;;;;33.00;31.30;;;;;;;;;;5020790;28;20077;-58
2023/11/21 12:52:47;;;;;;;;;;;;;;;;;;5017748;28;20079;-59
2023/11/21 12:55:21;;;;;;;35.83;33.85;;;;;;;;;;5022904;28;19917;-57
2023/11/21 12:57:51;;;;;;;33.80;31.75;;;;;;;;;;5023415;28;20049;-56
2023/11/21 13:00:28;;;;;;;33.33;31.63;;;;;;;;;;5020699;28;20525;-57
2023/11/21 13:02:56;;;;;;;32.78;31.08;;;;;;;;;;5019335;28;20057;-57
2023/11/21 13:05:39;;;;;;;34.35;32.55;;;;;;;;;;5023346;28;20068;-57
2023/11/21 13:08:11;;;;;;;34.65;32.78;;;;;;;;;;5024939;28;21364;-56
2023/11/21 13:10:43;;;;;;;35.22;33.42;;;;;;;;;;5022081;28;20080;-57
2023/11/21 13:13:10;;;;;;;35.53;33.63;;;;;;;;;;5019784;28;20037;-55
2023/11/21 13:15:48;;;;;;;34.70;32.90;;;;;;;;;;5023086;28;20064;-56
2023/11/21 13:18:13;;;;;;;34.28;32.47;;;;;;;;;;5018842;28;20032;-57
2023/11/21 13:20:39;;;;;;;33.95;31.83;;;;;;;;;;5020695;28;20041;-57
2023/11/21 13:23:08;;;;;;;34.85;32.97;;;;;;;;;;5022903;28;20029;-57
2023/11/21 13:25:34;;;;;;;35.67;33.78;;;;;;;;;;5020973;28;20574;-57
2023/11/21 13:28:00;;;;;;;34.95;33.05;;;;;;;;;;5021114;28;20168;-57
2023/11/21 13:30:27;;;;;;;34.65;32.78;;;;;;;;;;5022382;28;20081;-57
2023/11/21 13:32:56;;;;;;;33.13;31.42;;;;;;;;;;5018974;28;20561;-57
2023/11/21 13:35:30;;;;;;;35.95;34.05;;;;;;;;;;5022450;28;20033;-57
2023/11/21 13:37:59;;;;;;;32.78;31.08;;;;;;;;;;5008199;28;20474;-57
2023/11/21 13:40:26;;;;;;;36.97;34.70;;;;;;;;;;5021287;28;20127;-57
2023/11/21 13:42:58;;;;;;;34.50;32.70;;;;;;;;;;5022746;28;20029;-58
2023/11/21 13:45:27;;;;;;;33.00;31.27;;;;;;;;;;5023865;28;20040;-55
2023/11/21 13:47:58;;;;;;;34.38;32.50;;;;;;;;;;5022793;28;20026;-57
2023/11/21 13:50:32;;;;;;;33.83;32.03;;;;;;;;;;5022182;28;20041;-56
2023/11/21 13:53:03;;;;;;;33.55;31.75;;;;;;;;;;5021663;28;20112;-57
2023/11/21 13:55:28;;;;;;;33.10;31.10;;;;;;;;;;5019731;28;20447;-57
2023/11/21 13:57:54;;;;;;;33.53;31.77;;;;;;;;;;5020009;28;20029;-57
2023/11/21 14:03:08;;;;;;;35.60;33.30;;;;;;;;;;5022068;28;20451;-56
2023/11/21 14:05:34;;;;;;;34.95;33.10;;;;;;;;;;5021029;28;20034;-55
2023/11/21 14:08:04;;;;;;;34.90;33.08;;;;;;;;;;5017395;28;20363;-57
2023/11/21 14:10:40;;;;;;;34.40;32.60;;;;;;;;;;5022333;28;20030;-56
2023/11/21 14:13:06;;;;;;;33.95;32.03;;;;;;;;;;5021118;28;20045;-56
2023/11/21 14:15:33;;;;;;;33.95;32.15;;;;;;;;;;5022227;28;20037;-54
2023/11/21 14:18:02;;;;;;;35.30;33.45;;;;;;;;;;5019390;28;20239;-56
2023/11/21 14:20:29;;;;;;;33.65;31.88;;;;;;;;;;5020233;28;20030;-57